createdAt,value
2022-09-30T00:01:13.220Z,10.13
2022-09-30T00:03:40.972Z,12.18
2022-09-30T00:06:09.258Z,8.23
2022-09-30T00:08:37.698Z,9.35
2022-09-30T00:11:08.967Z,9.48
2022-09-30T00:13:40.160Z,10.27
2022-09-30T00:16:10.597Z,11.63
2022-09-30T00:18:38.773Z,10.73
2022-09-30T00:21:08.272Z,10.35
2022-09-30T00:23:37.935Z,9.20
2022-09-30T00:26:08.562Z,10.77
2022-09-30T00:28:36.304Z,9.60
2022-09-30T00:31:07.390Z,10.10
2022-09-30T00:33:35.917Z,8.77
2022-09-30T00:36:04.175Z,8.15
2022-09-30T00:38:32.159Z,9.00
2022-09-30T00:41:00.595Z,9.45
2022-09-30T00:43:44.003Z,9.30
2022-09-30T00:46:20.498Z,10.40
2022-09-30T00:48:54.829Z,7.18
2022-09-30T00:51:28.812Z,9.32
2022-09-30T00:53:58.816Z,11.65
2022-09-30T00:56:29.399Z,7.65
2022-09-30T00:59:06.948Z,8.93
2022-09-30T01:01:36.039Z,7.20
2022-09-30T01:04:07.596Z,10.65
2022-09-30T01:06:35.416Z,10.45
2022-09-30T01:09:03.398Z,9.13
2022-09-30T01:11:31.430Z,9.88
2022-09-30T01:14:03.737Z,10.20
2022-09-30T01:16:54.685Z,8.02
2022-09-30T01:20:00.252Z,10.88
2022-09-30T01:22:42.579Z,7.32
2022-09-30T01:25:36.942Z,8.48
2022-09-30T01:28:43.626Z,8.90
2022-09-30T01:31:26.791Z,10.00
2022-09-30T01:34:04.875Z,10.52
2022-09-30T01:36:47.501Z,11.27
2022-09-30T01:39:31.227Z,7.82
2022-09-30T01:42:10.135Z,9.63
2022-09-30T01:44:50.967Z,6.32
2022-09-30T01:47:26.401Z,7.53
2022-09-30T01:50:01.379Z,7.68
2022-09-30T01:52:36.512Z,10.65
2022-09-30T01:55:13.276Z,7.82
2022-09-30T02:00:15.404Z,7.00
2022-09-30T02:02:49.631Z,7.03
2022-09-30T02:05:23.055Z,11.77
2022-09-30T02:07:55.984Z,8.93
2022-09-30T02:10:28.700Z,7.18
2022-09-30T02:12:59.764Z,7.18
2022-09-30T02:15:40.376Z,8.13
2022-09-30T02:18:17.180Z,6.40
2022-09-30T02:20:47.844Z,6.95
2022-09-30T02:23:19.595Z,7.72
2022-09-30T02:25:52.558Z,6.80
2022-09-30T02:28:27.089Z,6.53
2022-09-30T02:30:57.838Z,5.55
2022-09-30T02:33:33.475Z,8.68
2022-09-30T02:36:06.018Z,9.60
2022-09-30T02:38:40.346Z,6.20
2022-09-30T02:41:12.961Z,6.18
2022-09-30T02:43:42.236Z,9.65
2022-09-30T02:46:17.733Z,7.53
2022-09-30T02:48:55.544Z,6.80
2022-09-30T02:51:31.414Z,4.82
2022-09-30T02:54:08.616Z,5.90
2022-09-30T02:56:47.112Z,6.70
2022-09-30T02:59:14.952Z,6.03
2022-09-30T03:01:44.139Z,7.72
2022-09-30T03:04:17.332Z,5.07
2022-09-30T03:06:45.253Z,5.90
2022-09-30T03:09:13.165Z,5.88
2022-09-30T03:11:41.663Z,6.22
2022-09-30T03:14:24.262Z,4.97
2022-09-30T03:17:18.731Z,10.40
2022-09-30T03:20:08.671Z,4.55
2022-09-30T03:22:53.065Z,6.82
2022-09-30T03:25:32.393Z,8.02
2022-09-30T03:28:13.480Z,5.15
2022-09-30T03:30:49.398Z,6.25
2022-09-30T03:33:25.181Z,3.93
2022-09-30T03:36:02.390Z,7.88
2022-09-30T03:38:41.364Z,4.88
2022-09-30T03:41:15.631Z,4.05
2022-09-30T03:43:48.332Z,4.80
2022-09-30T03:46:23.498Z,10.20
2022-09-30T03:48:56.112Z,5.70
2022-09-30T03:51:26.080Z,7.68
2022-09-30T03:53:55.381Z,3.85
2022-09-30T03:56:28.380Z,5.00
2022-09-30T03:58:56.487Z,4.22
2022-09-30T04:01:25.358Z,4.38
2022-09-30T04:03:55.993Z,6.30
2022-09-30T04:06:26.424Z,4.88
2022-09-30T04:08:54.937Z,6.50
2022-09-30T04:11:22.734Z,5.03
2022-09-30T04:13:50.472Z,4.50
2022-09-30T04:16:18.415Z,4.82
2022-09-30T04:18:46.185Z,5.97
2022-09-30T04:21:15.701Z,8.48
2022-09-30T04:23:44.766Z,5.90
2022-09-30T04:26:15.113Z,7.22
2022-09-30T04:28:43.100Z,7.38
2022-09-30T04:31:13.092Z,7.43
2022-09-30T04:33:41.288Z,8.68
2022-09-30T04:36:09.597Z,6.78
2022-09-30T04:38:37.340Z,6.57
2022-09-30T04:41:08.280Z,9.43
2022-09-30T04:43:36.303Z,5.60
2022-09-30T04:46:04.733Z,6.88
2022-09-30T04:48:32.506Z,7.55
2022-09-30T04:51:01.055Z,11.95
2022-09-30T04:53:29.361Z,7.85
2022-09-30T04:56:00.943Z,9.32
2022-09-30T04:58:36.825Z,11.77
2022-09-30T05:01:06.918Z,8.35
2022-09-30T05:03:35.277Z,9.43
2022-09-30T05:06:03.648Z,6.95
2022-09-30T05:08:32.224Z,7.38
2022-09-30T05:11:01.942Z,5.97
2022-09-30T05:13:34.220Z,7.22
2022-09-30T05:16:02.801Z,6.45
2022-09-30T05:18:30.606Z,6.40
2022-09-30T05:20:59.400Z,6.45
2022-09-30T05:23:30.329Z,6.82
2022-09-30T05:25:58.961Z,6.32
2022-09-30T05:28:27.009Z,6.60
2022-09-30T05:30:59.454Z,7.20
2022-09-30T05:33:29.479Z,6.97
2022-09-30T05:36:00.741Z,8.82
2022-09-30T05:38:28.798Z,5.75
2022-09-30T05:40:56.580Z,8.32
2022-09-30T05:43:24.438Z,8.52
2022-09-30T05:45:57.838Z,7.60
2022-09-30T05:48:26.565Z,7.63
2022-09-30T05:50:55.815Z,8.05
2022-09-30T05:53:24.018Z,7.05
2022-09-30T05:55:52.015Z,9.20
2022-09-30T05:58:20.362Z,8.00
2022-09-30T06:00:50.356Z,8.15
2022-09-30T06:03:20.023Z,8.95
2022-09-30T06:05:47.817Z,12.25
2022-09-30T06:08:16.464Z,6.90
2022-09-30T06:10:44.902Z,7.68
2022-09-30T06:13:13.025Z,10.57
2022-09-30T06:15:41.413Z,8.70
2022-09-30T06:18:10.026Z,9.98
2022-09-30T06:20:39.184Z,8.48
2022-09-30T06:23:06.976Z,9.48
2022-09-30T06:25:35.115Z,8.63
2022-09-30T06:28:03.344Z,9.75
2022-09-30T06:30:35.021Z,13.57
2022-09-30T06:33:03.307Z,10.10
2022-09-30T06:35:31.047Z,8.82
2022-09-30T06:38:00.121Z,10.00
2022-09-30T06:40:27.980Z,9.93
2022-09-30T06:43:00.589Z,9.73
2022-09-30T06:45:32.971Z,9.93
2022-09-30T06:48:02.311Z,9.88
2022-09-30T06:50:30.157Z,10.57
2022-09-30T06:53:00.544Z,9.35
2022-09-30T06:55:29.333Z,9.60
2022-09-30T06:57:57.925Z,8.50
2022-09-30T07:00:27.991Z,9.52
2022-09-30T07:02:56.631Z,9.55
2022-09-30T07:05:26.097Z,8.13
2022-09-30T07:07:53.873Z,9.35
2022-09-30T07:10:23.113Z,9.38
2022-09-30T07:12:52.052Z,10.68
2022-09-30T07:15:23.356Z,9.05
2022-09-30T07:17:54.022Z,10.10
2022-09-30T07:20:21.842Z,10.18
2022-09-30T07:22:49.698Z,10.98
2022-09-30T07:25:18.003Z,9.30
2022-09-30T07:27:47.125Z,9.68
2022-09-30T07:30:24.536Z,10.25
2022-09-30T07:32:54.710Z,9.50
2022-09-30T07:35:22.693Z,10.13
2022-09-30T07:37:50.449Z,11.98
2022-09-30T07:40:18.336Z,10.82
2022-09-30T07:42:47.692Z,10.27
2022-09-30T07:45:18.882Z,13.40
2022-09-30T07:47:49.808Z,12.70
2022-09-30T07:50:21.196Z,13.10
2022-09-30T07:52:55.912Z,12.80
2022-09-30T07:55:23.926Z,13.45
2022-09-30T07:57:53.102Z,13.63
2022-09-30T08:00:41.630Z,13.88
2022-09-30T08:03:08.651Z,13.20
2022-09-30T08:05:40.445Z,13.15
2022-09-30T08:08:08.254Z,13.48
2022-09-30T08:10:36.160Z,15.60
2022-09-30T08:13:06.364Z,13.18
2022-09-30T08:15:34.975Z,11.95
2022-09-30T08:18:03.483Z,17.30
2022-09-30T08:20:31.857Z,13.90
2022-09-30T08:22:59.794Z,13.93
2022-09-30T08:25:27.622Z,17.67
2022-09-30T08:27:55.855Z,11.90
2022-09-30T08:30:25.020Z,12.95
2022-09-30T08:32:52.787Z,12.82
2022-09-30T08:35:20.603Z,15.73
2022-09-30T08:37:48.351Z,18.27
2022-09-30T08:40:21.942Z,15.93
2022-09-30T08:43:10.251Z,17.00
2022-09-30T08:45:48.959Z,17.25
2022-09-30T08:48:30.759Z,15.63
2022-09-30T08:51:08.563Z,15.00
2022-09-30T08:53:40.080Z,16.05
2022-09-30T08:56:09.355Z,12.48
2022-09-30T08:58:42.444Z,13.00
2022-09-30T09:01:18.294Z,14.88
2022-09-30T09:03:46.550Z,15.23
2022-09-30T09:06:25.201Z,14.43
2022-09-30T09:09:06.503Z,11.98
2022-09-30T09:11:48.627Z,13.18
2022-09-30T09:14:29.262Z,11.35
2022-09-30T09:17:15.375Z,11.75
2022-09-30T09:19:48.604Z,12.73
2022-09-30T09:22:18.212Z,13.40
2022-09-30T09:24:51.033Z,12.68
2022-09-30T09:27:24.780Z,12.73
2022-09-30T09:30:02.728Z,12.15
2022-09-30T09:32:31.928Z,12.15
2022-09-30T09:35:03.511Z,10.00
2022-09-30T09:37:58.577Z,9.23
2022-09-30T09:40:35.695Z,9.18
2022-09-30T09:43:18.578Z,11.65
2022-09-30T09:45:56.567Z,8.95
2022-09-30T09:48:25.770Z,10.00
2022-09-30T09:51:02.710Z,9.65
2022-09-30T09:53:43.315Z,11.23
2022-09-30T09:56:18.896Z,12.05
2022-09-30T09:59:09.645Z,10.43
2022-09-30T10:01:39.811Z,7.70
2022-09-30T10:04:15.946Z,5.85
2022-09-30T10:06:47.219Z,7.72
2022-09-30T10:09:30.346Z,7.43
2022-09-30T10:12:19.680Z,6.20
2022-09-30T10:14:54.151Z,7.63
2022-09-30T10:17:25.769Z,8.25
2022-09-30T10:20:00.920Z,6.80
2022-09-30T10:22:30.607Z,6.53
2022-09-30T10:25:18.790Z,6.07
2022-09-30T10:27:56.239Z,7.68
2022-09-30T10:30:39.394Z,10.70
2022-09-30T10:33:14.855Z,6.53
2022-09-30T10:35:56.398Z,5.30
2022-09-30T10:38:29.360Z,5.95
2022-09-30T10:40:57.751Z,5.63
2022-09-30T10:43:30.051Z,5.80
2022-09-30T10:46:24.424Z,7.03
2022-09-30T10:48:54.393Z,5.38
2022-09-30T10:51:30.006Z,9.10
2022-09-30T10:53:58.391Z,7.33
2022-09-30T10:56:39.050Z,4.35
2022-09-30T10:59:16.595Z,4.68
2022-09-30T11:01:52.543Z,5.60
2022-09-30T11:04:28.875Z,4.55
2022-09-30T11:07:11.355Z,4.13
2022-09-30T11:09:45.831Z,5.35
2022-09-30T11:12:22.072Z,3.35
2022-09-30T11:14:59.483Z,2.97
2022-09-30T11:17:33.571Z,4.35
2022-09-30T11:20:13.660Z,3.15
2022-09-30T11:22:52.824Z,2.50
2022-09-30T11:25:28.665Z,8.95
2022-09-30T11:28:14.130Z,3.33
2022-09-30T11:30:52.616Z,4.60
2022-09-30T11:33:41.764Z,3.55
2022-09-30T11:36:19.670Z,3.92
2022-09-30T11:39:28.090Z,3.97
2022-09-30T11:42:04.192Z,4.28
2022-09-30T11:44:35.601Z,2.72
2022-09-30T11:47:29.214Z,2.15
2022-09-30T11:50:26.205Z,2.40
2022-09-30T11:53:05.016Z,2.50
2022-09-30T11:55:57.590Z,4.70
2022-09-30T11:58:41.052Z,2.95
2022-09-30T12:01:18.624Z,3.45
2022-09-30T12:03:56.143Z,2.40
2022-09-30T12:06:30.030Z,1.48
2022-09-30T12:09:03.972Z,3.67
2022-09-30T12:11:40.911Z,3.08
2022-09-30T12:14:16.481Z,2.40
2022-09-30T12:16:47.216Z,3.05
2022-09-30T12:19:23.034Z,3.00
2022-09-30T12:21:59.004Z,2.45
2022-09-30T12:24:33.118Z,1.25
2022-09-30T12:27:02.937Z,2.58
2022-09-30T12:29:55.696Z,3.90
2022-09-30T12:32:41.980Z,3.85
2022-09-30T12:35:29.143Z,2.28
2022-09-30T12:38:11.123Z,2.70
2022-09-30T12:40:53.631Z,2.38
2022-09-30T12:43:47.918Z,1.92
2022-09-30T12:46:20.170Z,2.63
2022-09-30T12:48:53.798Z,4.07
2022-09-30T12:51:26.709Z,1.98
2022-09-30T12:54:04.618Z,1.42
2022-09-30T12:56:34.635Z,2.70
2022-09-30T12:59:04.511Z,2.47
2022-09-30T13:01:36.843Z,3.72
2022-09-30T13:04:18.355Z,1.77
2022-09-30T13:07:12.796Z,3.97
2022-09-30T13:10:10.557Z,2.72
2022-09-30T13:15:41.075Z,2.25
2022-09-30T13:18:47.947Z,2.70
2022-09-30T13:21:23.052Z,4.38
2022-09-30T13:23:52.334Z,2.17
2022-09-30T13:26:46.325Z,2.97
2022-09-30T13:29:34.903Z,3.00
2022-09-30T13:32:11.467Z,3.17
2022-09-30T13:34:58.491Z,1.30
2022-09-30T13:37:40.750Z,3.17
2022-09-30T13:40:28.841Z,2.05
2022-09-30T13:43:06.123Z,1.58
2022-09-30T13:45:39.525Z,4.40
2022-09-30T13:48:14.260Z,2.13
2022-09-30T13:50:48.474Z,5.70
2022-09-30T13:53:23.359Z,1.08
2022-09-30T13:55:54.910Z,2.13
2022-09-30T13:58:51.056Z,1.42
2022-09-30T14:01:33.673Z,1.77
2022-09-30T14:04:28.752Z,1.70
2022-09-30T14:07:10.441Z,1.40
2022-09-30T14:09:52.653Z,3.55
2022-09-30T14:12:35.292Z,1.80
2022-09-30T14:15:22.699Z,4.45
2022-09-30T14:18:23.266Z,1.67
2022-09-30T14:21:06.537Z,1.33
2022-09-30T14:23:34.303Z,1.55
2022-09-30T14:26:27.625Z,2.00
2022-09-30T14:29:04.030Z,1.63
2022-09-30T14:31:32.341Z,2.35
2022-09-30T14:34:00.716Z,1.63
2022-09-30T14:36:30.140Z,2.03
2022-09-30T14:39:01.716Z,1.25
2022-09-30T14:41:31.417Z,3.75
2022-09-30T14:44:04.959Z,2.83
2022-09-30T14:46:36.945Z,1.85
2022-09-30T14:49:09.657Z,4.45
2022-09-30T14:51:43.614Z,3.15
2022-09-30T14:54:18.984Z,2.35
2022-09-30T14:56:47.084Z,1.52
2022-09-30T14:59:19.628Z,2.45
2022-09-30T15:01:49.771Z,1.52
2022-09-30T15:04:19.648Z,2.97
2022-09-30T15:06:52.904Z,5.68
2022-09-30T15:09:28.590Z,2.05
2022-09-30T15:11:58.394Z,3.20
2022-09-30T15:14:26.239Z,1.63
2022-09-30T15:16:55.904Z,2.38
2022-09-30T15:19:26.089Z,3.83
2022-09-30T15:21:58.659Z,1.55
2022-09-30T15:24:32.800Z,3.72
2022-09-30T15:27:02.852Z,3.22
2022-09-30T15:29:31.033Z,2.45
2022-09-30T15:32:02.180Z,3.25
2022-09-30T15:34:30.916Z,2.95
2022-09-30T15:37:06.580Z,2.95
2022-09-30T15:39:55.639Z,2.80
2022-09-30T15:42:35.275Z,1.92
2022-09-30T15:45:04.376Z,1.63
2022-09-30T15:47:32.449Z,3.42
2022-09-30T15:50:00.488Z,3.13
2022-09-30T15:52:36.770Z,3.15
2022-09-30T15:55:38.573Z,4.18
2022-09-30T15:58:26.885Z,1.70
2022-09-30T16:01:10.338Z,2.53
2022-09-30T16:03:38.600Z,5.13
2022-09-30T16:06:08.739Z,3.17
2022-09-30T16:08:44.744Z,4.30
2022-09-30T16:11:21.233Z,3.05
2022-09-30T16:13:50.334Z,4.32
2022-09-30T16:16:22.218Z,1.92
2022-09-30T16:18:52.285Z,3.83
2022-09-30T16:21:44.938Z,3.08
2022-09-30T16:24:48.750Z,2.13
2022-09-30T16:27:30.242Z,2.63
2022-09-30T16:29:59.092Z,1.98
2022-09-30T16:32:38.236Z,2.10
2022-09-30T16:35:07.279Z,2.03
2022-09-30T16:37:35.223Z,1.67
2022-09-30T16:40:17.390Z,3.22
2022-09-30T16:42:45.116Z,4.65
2022-09-30T16:45:14.925Z,3.08
2022-09-30T16:47:43.183Z,3.95
2022-09-30T16:50:22.136Z,2.80
2022-09-30T16:52:49.851Z,1.63
2022-09-30T16:55:19.085Z,2.55
2022-09-30T16:57:46.835Z,3.88
2022-09-30T17:00:18.159Z,2.58
2022-09-30T17:02:47.670Z,1.92
2022-09-30T17:05:18.673Z,2.75
2022-09-30T17:07:47.453Z,2.25
2022-09-30T17:10:22.500Z,1.60
2022-09-30T17:12:51.463Z,1.98
2022-09-30T17:15:19.817Z,4.20
2022-09-30T17:17:48.009Z,3.10
2022-09-30T17:20:15.886Z,3.97
2022-09-30T17:22:44.273Z,1.45
2022-09-30T17:25:12.160Z,2.90
2022-09-30T17:27:41.287Z,2.50
2022-09-30T17:30:10.235Z,2.40
2022-09-30T17:32:37.983Z,2.42
2022-09-30T17:35:08.495Z,3.38
2022-09-30T17:37:38.545Z,2.38
2022-09-30T17:40:23.649Z,3.42
2022-09-30T17:43:10.510Z,4.20
2022-09-30T17:45:39.949Z,2.33
2022-09-30T17:48:07.790Z,4.28
2022-09-30T17:50:35.821Z,3.53
2022-09-30T17:53:03.986Z,4.20
2022-09-30T17:55:31.868Z,6.22
2022-09-30T17:58:02.997Z,6.47
2022-09-30T18:00:31.167Z,3.63
2022-09-30T18:02:59.428Z,3.13
2022-09-30T18:05:27.415Z,3.13
2022-09-30T18:07:55.267Z,2.15
2022-09-30T18:10:23.062Z,3.25
2022-09-30T18:12:51.768Z,3.67
2022-09-30T18:15:21.338Z,4.78
2022-09-30T18:17:49.401Z,1.98
2022-09-30T18:20:17.891Z,3.90
2022-09-30T18:22:47.328Z,5.20
2022-09-30T18:25:21.055Z,3.15
2022-09-30T18:27:50.271Z,3.67
2022-09-30T18:30:19.019Z,3.90
2022-09-30T18:32:49.661Z,4.35
2022-09-30T18:35:20.055Z,3.35
2022-09-30T18:37:49.824Z,2.80
2022-09-30T18:40:18.824Z,3.90
2022-09-30T18:42:47.016Z,3.22
2022-09-30T18:45:14.758Z,2.92
2022-09-30T18:47:44.064Z,6.03
2022-09-30T18:50:15.600Z,2.67
2022-09-30T18:52:43.392Z,4.43
2022-09-30T18:55:11.159Z,1.80
2022-09-30T18:57:39.160Z,4.75
2022-09-30T19:00:10.314Z,2.38
2022-09-30T19:02:39.704Z,2.35
2022-09-30T19:05:08.511Z,2.42
2022-09-30T19:07:39.149Z,4.30
2022-09-30T19:10:08.267Z,3.75
2022-09-30T19:12:37.881Z,2.63
2022-09-30T19:15:07.087Z,3.97
2022-09-30T19:17:36.955Z,4.13
2022-09-30T19:20:06.163Z,3.60
2022-09-30T19:22:37.194Z,2.33
2022-09-30T19:25:07.131Z,2.78
2022-09-30T19:27:38.397Z,4.05
2022-09-30T19:30:08.616Z,2.85
2022-09-30T19:32:37.064Z,2.22
2022-09-30T19:35:07.005Z,3.53
2022-09-30T19:37:35.054Z,2.65
2022-09-30T19:40:18.220Z,4.38
2022-09-30T19:42:50.469Z,2.10
2022-09-30T19:45:24.434Z,1.98
2022-09-30T19:47:53.940Z,4.03
2022-09-30T19:50:21.759Z,2.30
2022-09-30T19:52:56.779Z,2.67
2022-09-30T19:55:25.796Z,2.53
2022-09-30T19:57:55.075Z,3.00
2022-09-30T20:00:22.835Z,3.53
2022-09-30T20:02:52.713Z,2.75
2022-09-30T20:05:20.633Z,2.50
2022-09-30T20:07:51.104Z,2.08
2022-09-30T20:10:19.448Z,2.05
2022-09-30T20:12:47.115Z,2.30
2022-09-30T20:15:33.964Z,1.40
2022-09-30T20:18:01.681Z,2.08
2022-09-30T20:20:35.490Z,2.15
2022-09-30T20:23:03.546Z,2.55
2022-09-30T20:25:31.660Z,3.88
2022-09-30T20:27:59.444Z,2.88
2022-09-30T20:30:30.017Z,1.45
2022-09-30T20:32:57.946Z,2.63
2022-09-30T20:35:26.188Z,3.47
2022-09-30T20:37:54.075Z,2.13
2022-09-30T20:40:21.904Z,1.65
2022-09-30T20:42:51.903Z,2.75
2022-09-30T20:45:19.730Z,3.58
2022-09-30T20:47:48.956Z,2.22
2022-09-30T20:50:34.883Z,4.30
2022-09-30T20:53:08.395Z,2.22
2022-09-30T20:55:38.476Z,2.42
2022-09-30T20:58:08.388Z,3.05
2022-09-30T21:00:38.447Z,3.70
2022-09-30T21:03:09.227Z,4.07
2022-09-30T21:05:37.882Z,2.60
2022-09-30T21:08:07.422Z,2.47
2022-09-30T21:10:36.703Z,4.40
2022-09-30T21:13:10.450Z,2.40
2022-09-30T21:15:38.289Z,4.25
2022-09-30T21:18:10.947Z,3.80
2022-09-30T21:20:39.496Z,2.58
2022-09-30T21:23:07.226Z,2.30
2022-09-30T21:25:35.033Z,2.72
2022-09-30T21:28:04.624Z,2.15
2022-09-30T21:30:32.393Z,7.85
2022-09-30T21:33:00.140Z,1.98
2022-09-30T21:35:29.285Z,1.55
2022-09-30T21:37:57.038Z,2.35
2022-09-30T21:40:24.805Z,4.28
2022-09-30T21:42:52.510Z,3.35
2022-09-30T21:45:20.392Z,3.30
2022-09-30T21:47:48.124Z,2.70
2022-09-30T21:50:16.179Z,3.20
2022-09-30T21:52:45.298Z,2.75
2022-09-30T21:55:13.774Z,3.40
2022-09-30T21:57:43.276Z,3.63
2022-09-30T22:00:12.204Z,3.03
2022-09-30T22:02:40.684Z,5.35
2022-09-30T22:05:09.459Z,3.70
2022-09-30T22:07:38.985Z,3.75
2022-09-30T22:10:09.509Z,3.97
2022-09-30T22:12:37.187Z,5.22
2022-09-30T22:15:05.396Z,2.45
2022-09-30T22:17:33.083Z,5.35
2022-09-30T22:20:01.106Z,5.60
2022-09-30T22:22:29.056Z,1.90
2022-09-30T22:24:57.046Z,2.80
2022-09-30T22:27:26.150Z,1.98
2022-09-30T22:29:53.928Z,3.33
2022-09-30T22:32:21.649Z,3.20
2022-09-30T22:35:07.214Z,3.28
2022-09-30T22:38:00.962Z,2.97
2022-09-30T22:40:28.738Z,2.88
2022-09-30T22:42:58.033Z,5.47
2022-09-30T22:45:25.906Z,3.92
2022-09-30T22:47:53.764Z,2.80
2022-09-30T22:50:22.081Z,3.03
2022-09-30T22:52:49.774Z,4.43
2022-09-30T22:55:17.766Z,6.45
2022-09-30T22:57:45.516Z,2.15
2022-09-30T23:00:15.606Z,5.35
2022-09-30T23:02:43.332Z,4.60
2022-09-30T23:05:11.092Z,5.35
2022-09-30T23:07:38.815Z,6.22
2022-09-30T23:10:09.160Z,3.15
2022-09-30T23:12:36.885Z,2.88
2022-09-30T23:15:05.472Z,3.17
2022-09-30T23:17:35.760Z,4.88
2022-09-30T23:20:03.482Z,4.57
2022-09-30T23:22:31.208Z,2.25
2022-09-30T23:25:01.388Z,2.40
2022-09-30T23:27:29.166Z,4.03
2022-09-30T23:29:56.916Z,4.43
2022-09-30T23:32:24.674Z,4.22
2022-09-30T23:34:55.088Z,4.45
2022-09-30T23:37:23.048Z,4.18
2022-09-30T23:39:50.775Z,4.40
2022-09-30T23:42:18.875Z,5.45
2022-09-30T23:44:46.604Z,5.95
2022-09-30T23:47:21.399Z,6.75
2022-09-30T23:49:50.455Z,6.82
2022-09-30T23:52:19.857Z,4.80
2022-09-30T23:54:47.623Z,6.22
2022-09-30T23:57:15.386Z,4.70
2022-09-30T23:59:43.115Z,3.88
